sensor_id;sensor_type;location;lat;lon;timestamp;temperature;humidity
72114;SHT31;59989;46.220;19.888;2023-12-20T00:00:23;-3.47;99.99
72114;SHT31;59989;46.220;19.888;2023-12-20T00:03:25;-3.48;99.99
72114;SHT31;59989;46.220;19.888;2023-12-20T00:06:29;-3.51;99.99
72114;SHT31;59989;46.220;19.888;2023-12-20T00:09:32;-3.54;99.99
72114;SHT31;59989;46.220;19.888;2023-12-20T00:12:34;-3.59;99.99
72114;SHT31;59989;46.220;19.888;2023-12-20T00:15:37;-3.64;99.99
72114;SHT31;59989;46.220;19.888;2023-12-20T00:18:39;-3.61;99.99
72114;SHT31;59989;46.220;19.888;2023-12-20T00:21:42;-3.61;99.99
72114;SHT31;59989;46.220;19.888;2023-12-20T00:24:45;-3.71;99.99
72114;SHT31;59989;46.220;19.888;2023-12-20T00:27:47;-3.71;99.99
72114;SHT31;59989;46.220;19.888;2023-12-20T00:30:50;-3.71;99.99
72114;SHT31;59989;46.220;19.888;2023-12-20T00:33:53;-3.71;99.99
72114;SHT31;59989;46.220;19.888;2023-12-20T00:36:56;-3.72;99.99
72114;SHT31;59989;46.220;19.888;2023-12-20T00:39:59;-3.68;99.99
72114;SHT31;59989;46.220;19.888;2023-12-20T00:43:02;-3.74;99.99
72114;SHT31;59989;46.220;19.888;2023-12-20T00:46:04;-3.74;99.99
72114;SHT31;59989;46.220;19.888;2023-12-20T00:49:07;-3.72;99.99
72114;SHT31;59989;46.220;19.888;2023-12-20T00:52:10;-3.74;99.99
72114;SHT31;59989;46.220;19.888;2023-12-20T00:55:12;-3.76;99.87
72114;SHT31;59989;46.220;19.888;2023-12-20T00:58:15;-3.76;99.99
72114;SHT31;59989;46.220;19.888;2023-12-20T01:01:17;-3.74;99.94
72114;SHT31;59989;46.220;19.888;2023-12-20T01:04:20;-3.78;99.86
72114;SHT31;59989;46.220;19.888;2023-12-20T01:07:23;-3.78;99.83
72114;SHT31;59989;46.220;19.888;2023-12-20T01:10:26;-3.83;99.96
72114;SHT31;59989;46.220;19.888;2023-12-20T01:13:31;-3.81;99.92
72114;SHT31;59989;46.220;19.888;2023-12-20T01:16:33;-3.83;99.89
72114;SHT31;59989;46.220;19.888;2023-12-20T01:19:36;-3.79;99.97
72114;SHT31;59989;46.220;19.888;2023-12-20T01:22:39;-3.85;99.83
72114;SHT31;59989;46.220;19.888;2023-12-20T01:25:41;-3.85;99.92
72114;SHT31;59989;46.220;19.888;2023-12-20T01:28:44;-3.90;99.97
72114;SHT31;59989;46.220;19.888;2023-12-20T01:31:46;-3.93;99.99
72114;SHT31;59989;46.220;19.888;2023-12-20T01:34:49;-3.93;99.99
72114;SHT31;59989;46.220;19.888;2023-12-20T01:37:52;-3.96;99.99
72114;SHT31;59989;46.220;19.888;2023-12-20T01:40:54;-3.97;99.99
72114;SHT31;59989;46.220;19.888;2023-12-20T01:43:57;-4.03;99.99
72114;SHT31;59989;46.220;19.888;2023-12-20T01:47:00;-4.02;99.99
72114;SHT31;59989;46.220;19.888;2023-12-20T01:50:03;-4.07;99.99
72114;SHT31;59989;46.220;19.888;2023-12-20T01:53:07;-4.11;99.99
72114;SHT31;59989;46.220;19.888;2023-12-20T01:56:11;-4.09;99.99
72114;SHT31;59989;46.220;19.888;2023-12-20T01:59:14;-4.11;99.99
72114;SHT31;59989;46.220;19.888;2023-12-20T02:02:16;-4.16;99.99
72114;SHT31;59989;46.220;19.888;2023-12-20T02:05:20;-4.20;99.99
72114;SHT31;59989;46.220;19.888;2023-12-20T02:08:23;-4.20;99.99
72114;SHT31;59989;46.220;19.888;2023-12-20T02:11:26;-4.21;99.99
72114;SHT31;59989;46.220;19.888;2023-12-20T02:14:28;-4.23;99.99
72114;SHT31;59989;46.220;19.888;2023-12-20T02:17:32;-4.21;99.99
72114;SHT31;59989;46.220;19.888;2023-12-20T02:20:34;-4.23;99.99
72114;SHT31;59989;46.220;19.888;2023-12-20T02:23:37;-4.26;99.99
72114;SHT31;59989;46.220;19.888;2023-12-20T02:26:40;-4.23;99.99
72114;SHT31;59989;46.220;19.888;2023-12-20T02:29:47;-4.26;99.99
72114;SHT31;59989;46.220;19.888;2023-12-20T02:32:51;-4.28;99.99
72114;SHT31;59989;46.220;19.888;2023-12-20T02:35:54;-4.30;99.99
72114;SHT31;59989;46.220;19.888;2023-12-20T02:38:57;-4.33;99.99
72114;SHT31;59989;46.220;19.888;2023-12-20T02:41:59;-4.30;99.99
72114;SHT31;59989;46.220;19.888;2023-12-20T02:45:02;-4.31;99.99
72114;SHT31;59989;46.220;19.888;2023-12-20T02:48:04;-4.33;99.99
72114;SHT31;59989;46.220;19.888;2023-12-20T02:51:07;-4.30;99.99
72114;SHT31;59989;46.220;19.888;2023-12-20T02:54:10;-4.31;99.99
72114;SHT31;59989;46.220;19.888;2023-12-20T02:57:12;-4.38;99.99
72114;SHT31;59989;46.220;19.888;2023-12-20T03:00:15;-4.30;99.99
72114;SHT31;59989;46.220;19.888;2023-12-20T03:03:17;-4.31;99.99
72114;SHT31;59989;46.220;19.888;2023-12-20T03:06:20;-4.27;99.99
72114;SHT31;59989;46.220;19.888;2023-12-20T03:09:23;-4.26;99.99
72114;SHT31;59989;46.220;19.888;2023-12-20T03:12:25;-4.28;99.99
72114;SHT31;59989;46.220;19.888;2023-12-20T03:15:28;-4.28;99.99
72114;SHT31;59989;46.220;19.888;2023-12-20T03:18:30;-4.31;99.99
72114;SHT31;59989;46.220;19.888;2023-12-20T03:21:33;-4.33;99.99
72114;SHT31;59989;46.220;19.888;2023-12-20T03:24:35;-4.31;99.99
72114;SHT31;59989;46.220;19.888;2023-12-20T03:27:38;-4.34;99.99
72114;SHT31;59989;46.220;19.888;2023-12-20T03:30:43;-4.37;99.99
72114;SHT31;59989;46.220;19.888;2023-12-20T03:33:46;-4.37;99.99
72114;SHT31;59989;46.220;19.888;2023-12-20T03:36:48;-4.36;99.99
72114;SHT31;59989;46.220;19.888;2023-12-20T03:39:51;-4.43;99.99
72114;SHT31;59989;46.220;19.888;2023-12-20T03:42:53;-4.47;99.99
72114;SHT31;59989;46.220;19.888;2023-12-20T03:45:56;-4.50;99.99
72114;SHT31;59989;46.220;19.888;2023-12-20T03:48:58;-4.57;99.99
72114;SHT31;59989;46.220;19.888;2023-12-20T03:52:05;-4.57;99.99
72114;SHT31;59989;46.220;19.888;2023-12-20T03:55:08;-4.62;99.99
72114;SHT31;59989;46.220;19.888;2023-12-20T03:58:10;-4.61;99.99
72114;SHT31;59989;46.220;19.888;2023-12-20T04:01:13;-4.68;99.99
72114;SHT31;59989;46.220;19.888;2023-12-20T04:04:17;-4.65;99.99
72114;SHT31;59989;46.220;19.888;2023-12-20T04:07:20;-4.60;99.99
72114;SHT31;59989;46.220;19.888;2023-12-20T04:10:22;-4.60;99.99
72114;SHT31;59989;46.220;19.888;2023-12-20T04:13:25;-4.60;99.99
72114;SHT31;59989;46.220;19.888;2023-12-20T04:16:27;-4.61;99.99
72114;SHT31;59989;46.220;19.888;2023-12-20T04:19:30;-4.61;99.99
72114;SHT31;59989;46.220;19.888;2023-12-20T04:22:32;-4.61;99.99
72114;SHT31;59989;46.220;19.888;2023-12-20T04:25:35;-4.64;99.99
72114;SHT31;59989;46.220;19.888;2023-12-20T04:28:38;-4.65;99.99
72114;SHT31;59989;46.220;19.888;2023-12-20T04:31:40;-4.64;99.99
72114;SHT31;59989;46.220;19.888;2023-12-20T04:34:44;-4.71;99.99
72114;SHT31;59989;46.220;19.888;2023-12-20T04:37:46;-4.66;99.99
72114;SHT31;59989;46.220;19.888;2023-12-20T04:40:51;-4.66;99.99
72114;SHT31;59989;46.220;19.888;2023-12-20T04:43:54;-4.61;99.99
72114;SHT31;59989;46.220;19.888;2023-12-20T04:46:57;-4.58;99.99
72114;SHT31;59989;46.220;19.888;2023-12-20T04:49:59;-4.58;99.99
72114;SHT31;59989;46.220;19.888;2023-12-20T04:53:03;-4.57;99.99
72114;SHT31;59989;46.220;19.888;2023-12-20T04:56:05;-4.58;99.99
72114;SHT31;59989;46.220;19.888;2023-12-20T04:59:08;-4.53;99.99
72114;SHT31;59989;46.220;19.888;2023-12-20T05:02:11;-4.55;99.97
72114;SHT31;59989;46.220;19.888;2023-12-20T05:05:13;-4.53;99.96
72114;SHT31;59989;46.220;19.888;2023-12-20T05:08:17;-4.57;99.85
72114;SHT31;59989;46.220;19.888;2023-12-20T05:11:20;-4.54;99.99
72114;SHT31;59989;46.220;19.888;2023-12-20T05:14:23;-4.54;99.99
72114;SHT31;59989;46.220;19.888;2023-12-20T05:17:27;-4.48;99.99
72114;SHT31;59989;46.220;19.888;2023-12-20T05:20:30;-4.44;99.99
72114;SHT31;59989;46.220;19.888;2023-12-20T05:23:32;-4.44;99.84
72114;SHT31;59989;46.220;19.888;2023-12-20T05:26:35;-4.47;99.99
72114;SHT31;59989;46.220;19.888;2023-12-20T05:29:38;-4.47;99.92
72114;SHT31;59989;46.220;19.888;2023-12-20T05:32:40;-4.40;99.98
72114;SHT31;59989;46.220;19.888;2023-12-20T05:35:43;-4.40;99.99
72114;SHT31;59989;46.220;19.888;2023-12-20T05:38:46;-4.41;99.99
72114;SHT31;59989;46.220;19.888;2023-12-20T05:41:48;-4.41;99.99
72114;SHT31;59989;46.220;19.888;2023-12-20T05:44:51;-4.43;99.89
72114;SHT31;59989;46.220;19.888;2023-12-20T05:47:56;-4.38;99.99
72114;SHT31;59989;46.220;19.888;2023-12-20T05:50:59;-4.40;99.99
72114;SHT31;59989;46.220;19.888;2023-12-20T05:54:05;-4.40;99.99
72114;SHT31;59989;46.220;19.888;2023-12-20T05:57:07;-4.36;99.99
72114;SHT31;59989;46.220;19.888;2023-12-20T06:00:10;-4.43;99.99
72114;SHT31;59989;46.220;19.888;2023-12-20T06:03:13;-4.40;99.99
72114;SHT31;59989;46.220;19.888;2023-12-20T06:06:16;-4.41;99.99
72114;SHT31;59989;46.220;19.888;2023-12-20T06:09:20;-4.37;99.99
72114;SHT31;59989;46.220;19.888;2023-12-20T06:12:23;-4.31;99.99
72114;SHT31;59989;46.220;19.888;2023-12-20T06:15:26;-4.36;99.99
72114;SHT31;59989;46.220;19.888;2023-12-20T06:18:28;-4.33;99.99
72114;SHT31;59989;46.220;19.888;2023-12-20T06:21:31;-4.33;99.99
72114;SHT31;59989;46.220;19.888;2023-12-20T06:24:34;-4.34;99.99
72114;SHT31;59989;46.220;19.888;2023-12-20T06:27:38;-4.36;99.99
72114;SHT31;59989;46.220;19.888;2023-12-20T06:30:44;-4.31;99.99
72114;SHT31;59989;46.220;19.888;2023-12-20T06:33:59;-4.30;99.99
72114;SHT31;59989;46.220;19.888;2023-12-20T06:37:04;-4.27;99.99
72114;SHT31;59989;46.220;19.888;2023-12-20T06:40:09;-4.27;99.99
72114;SHT31;59989;46.220;19.888;2023-12-20T06:43:20;-4.31;99.99
72114;SHT31;59989;46.220;19.888;2023-12-20T06:46:43;-4.34;99.99
72114;SHT31;59989;46.220;19.888;2023-12-20T06:49:45;-4.31;99.99
72114;SHT31;59989;46.220;19.888;2023-12-20T06:52:48;-4.34;99.99
72114;SHT31;59989;46.220;19.888;2023-12-20T06:55:51;-4.34;99.99
72114;SHT31;59989;46.220;19.888;2023-12-20T06:58:54;-4.30;99.99
72114;SHT31;59989;46.220;19.888;2023-12-20T07:01:56;-4.33;99.99
72114;SHT31;59989;46.220;19.888;2023-12-20T07:04:59;-4.30;99.99
72114;SHT31;59989;46.220;19.888;2023-12-20T07:08:03;-4.30;99.99
72114;SHT31;59989;46.220;19.888;2023-12-20T07:11:06;-4.27;99.99
72114;SHT31;59989;46.220;19.888;2023-12-20T07:14:09;-4.23;99.99
72114;SHT31;59989;46.220;19.888;2023-12-20T07:17:12;-4.21;99.99
72114;SHT31;59989;46.220;19.888;2023-12-20T07:20:17;-4.06;99.99
72114;SHT31;59989;46.220;19.888;2023-12-20T07:23:20;-3.92;99.99
72114;SHT31;59989;46.220;19.888;2023-12-20T07:26:24;-3.87;99.99
72114;SHT31;59989;46.220;19.888;2023-12-20T07:29:26;-3.86;99.99
72114;SHT31;59989;46.220;19.888;2023-12-20T07:32:29;-3.78;99.99
72114;SHT31;59989;46.220;19.888;2023-12-20T07:35:33;-3.62;99.99
72114;SHT31;59989;46.220;19.888;2023-12-20T07:38:36;-3.57;99.99
72114;SHT31;59989;46.220;19.888;2023-12-20T07:41:39;-3.54;99.98
72114;SHT31;59989;46.220;19.888;2023-12-20T07:44:42;-3.45;99.99
72114;SHT31;59989;46.220;19.888;2023-12-20T07:47:45;-3.50;99.99
72114;SHT31;59989;46.220;19.888;2023-12-20T07:50:48;-3.47;99.99
72114;SHT31;59989;46.220;19.888;2023-12-20T07:53:51;-3.40;99.98
72114;SHT31;59989;46.220;19.888;2023-12-20T07:56:55;-3.26;99.99
72114;SHT31;59989;46.220;19.888;2023-12-20T07:59:58;-3.31;99.97
72114;SHT31;59989;46.220;19.888;2023-12-20T08:03:00;-3.30;99.99
72114;SHT31;59989;46.220;19.888;2023-12-20T08:06:06;-3.31;99.99
72114;SHT31;59989;46.220;19.888;2023-12-20T08:09:08;-3.28;99.99
72114;SHT31;59989;46.220;19.888;2023-12-20T08:12:11;-3.24;99.99
72114;SHT31;59989;46.220;19.888;2023-12-20T08:15:14;-3.17;99.99
72114;SHT31;59989;46.220;19.888;2023-12-20T08:18:20;-3.06;99.99
72114;SHT31;59989;46.220;19.888;2023-12-20T08:21:23;-3.03;99.99
72114;SHT31;59989;46.220;19.888;2023-12-20T08:24:26;-3.06;99.99
72114;SHT31;59989;46.220;19.888;2023-12-20T08:27:28;-3.01;99.99
72114;SHT31;59989;46.220;19.888;2023-12-20T08:30:31;-2.92;99.99
72114;SHT31;59989;46.220;19.888;2023-12-20T08:33:34;-2.70;99.99
72114;SHT31;59989;46.220;19.888;2023-12-20T08:36:37;-2.65;99.91
72114;SHT31;59989;46.220;19.888;2023-12-20T08:39:40;-2.72;99.85
72114;SHT31;59989;46.220;19.888;2023-12-20T08:42:47;-2.68;99.85
72114;SHT31;59989;46.220;19.888;2023-12-20T08:45:50;-2.47;99.99
72114;SHT31;59989;46.220;19.888;2023-12-20T08:48:52;-2.54;99.63
72114;SHT31;59989;46.220;19.888;2023-12-20T08:51:56;-2.42;99.90
72114;SHT31;59989;46.220;19.888;2023-12-20T08:54:58;-2.21;99.83
72114;SHT31;59989;46.220;19.888;2023-12-20T08:58:01;-2.38;99.62
72114;SHT31;59989;46.220;19.888;2023-12-20T09:01:04;-2.26;99.81
72114;SHT31;59989;46.220;19.888;2023-12-20T09:04:07;-2.20;99.82
72114;SHT31;59989;46.220;19.888;2023-12-20T09:07:22;-2.10;99.61
72114;SHT31;59989;46.220;19.888;2023-12-20T09:10:25;-2.41;99.57
72114;SHT31;59989;46.220;19.888;2023-12-20T09:13:28;-2.20;99.85
72114;SHT31;59989;46.220;19.888;2023-12-20T09:16:31;-2.09;99.67
72114;SHT31;59989;46.220;19.888;2023-12-20T09:19:34;-2.19;99.47
72114;SHT31;59989;46.220;19.888;2023-12-20T09:22:36;-2.01;99.73
72114;SHT31;59989;46.220;19.888;2023-12-20T09:25:40;-2.03;99.80
72114;SHT31;59989;46.220;19.888;2023-12-20T09:28:43;-1.91;99.68
72114;SHT31;59989;46.220;19.888;2023-12-20T09:31:46;-1.93;99.62
72114;SHT31;59989;46.220;19.888;2023-12-20T09:34:49;-1.68;99.59
72114;SHT31;59989;46.220;19.888;2023-12-20T09:37:52;-1.70;99.39
72114;SHT31;59989;46.220;19.888;2023-12-20T09:40:54;-1.66;99.44
72114;SHT31;59989;46.220;19.888;2023-12-20T09:44:02;-1.42;99.55
72114;SHT31;59989;46.220;19.888;2023-12-20T09:47:05;-1.61;99.39
72114;SHT31;59989;46.220;19.888;2023-12-20T09:50:09;-1.75;99.54
72114;SHT31;59989;46.220;19.888;2023-12-20T09:53:15;-1.73;99.78
72114;SHT31;59989;46.220;19.888;2023-12-20T09:56:18;-1.75;99.70
72114;SHT31;59989;46.220;19.888;2023-12-20T09:59:21;-1.83;99.73
72114;SHT31;59989;46.220;19.888;2023-12-20T10:02:25;-1.96;99.77
72114;SHT31;59989;46.220;19.888;2023-12-20T10:05:32;-1.69;99.99
72114;SHT31;59989;46.220;19.888;2023-12-20T10:08:36;-1.65;99.85
72114;SHT31;59989;46.220;19.888;2023-12-20T10:11:39;-1.56;99.73
72114;SHT31;59989;46.220;19.888;2023-12-20T10:14:42;-1.63;99.75
72114;SHT31;59989;46.220;19.888;2023-12-20T10:17:48;-1.78;99.90
72114;SHT31;59989;46.220;19.888;2023-12-20T10:20:52;-1.72;99.99
72114;SHT31;59989;46.220;19.888;2023-12-20T10:23:57;-1.58;99.99
72114;SHT31;59989;46.220;19.888;2023-12-20T10:27:04;-1.55;99.99
72114;SHT31;59989;46.220;19.888;2023-12-20T10:30:08;-1.51;99.83
72114;SHT31;59989;46.220;19.888;2023-12-20T10:33:11;-1.49;99.95
72114;SHT31;59989;46.220;19.888;2023-12-20T10:36:14;-1.37;99.85
72114;SHT31;59989;46.220;19.888;2023-12-20T10:39:17;-1.25;99.82
72114;SHT31;59989;46.220;19.888;2023-12-20T10:42:21;-1.21;99.74
72114;SHT31;59989;46.220;19.888;2023-12-20T10:45:24;-1.12;99.82
72114;SHT31;59989;46.220;19.888;2023-12-20T10:48:29;-1.32;99.73
72114;SHT31;59989;46.220;19.888;2023-12-20T10:51:36;-1.25;99.92
72114;SHT31;59989;46.220;19.888;2023-12-20T10:54:40;-1.37;99.89
72114;SHT31;59989;46.220;19.888;2023-12-20T10:57:44;-1.32;99.99
72114;SHT31;59989;46.220;19.888;2023-12-20T11:01:00;-1.38;99.99
72114;SHT31;59989;46.220;19.888;2023-12-20T11:04:06;-1.30;99.99
72114;SHT31;59989;46.220;19.888;2023-12-20T11:07:19;-1.24;99.99
72114;SHT31;59989;46.220;19.888;2023-12-20T11:10:31;-1.27;99.99
72114;SHT31;59989;46.220;19.888;2023-12-20T11:13:52;-1.17;99.99
72114;SHT31;59989;46.220;19.888;2023-12-20T11:17:06;-1.24;99.97
72114;SHT31;59989;46.220;19.888;2023-12-20T11:20:09;-1.18;99.96
72114;SHT31;59989;46.220;19.888;2023-12-20T11:23:14;-1.21;99.91
72114;SHT31;59989;46.220;19.888;2023-12-20T11:26:22;-1.18;99.94
72114;SHT31;59989;46.220;19.888;2023-12-20T11:29:35;-1.14;99.99
72114;SHT31;59989;46.220;19.888;2023-12-20T11:32:40;-1.11;99.99
72114;SHT31;59989;46.220;19.888;2023-12-20T11:35:45;-0.99;99.99
72114;SHT31;59989;46.220;19.888;2023-12-20T11:38:56;-0.91;99.99
72114;SHT31;59989;46.220;19.888;2023-12-20T11:42:04;-0.93;99.99
72114;SHT31;59989;46.220;19.888;2023-12-20T11:45:12;-0.86;99.96
72114;SHT31;59989;46.220;19.888;2023-12-20T11:48:18;-0.70;99.89
72114;SHT31;59989;46.220;19.888;2023-12-20T11:51:21;-0.73;99.85
72114;SHT31;59989;46.220;19.888;2023-12-20T11:54:24;-0.63;99.66
72114;SHT31;59989;46.220;19.888;2023-12-20T11:57:26;-0.63;99.81
72114;SHT31;59989;46.220;19.888;2023-12-20T12:00:30;-0.65;99.82
72114;SHT31;59989;46.220;19.888;2023-12-20T12:03:32;-0.63;99.75
72114;SHT31;59989;46.220;19.888;2023-12-20T12:06:35;-0.55;99.81
72114;SHT31;59989;46.220;19.888;2023-12-20T12:09:38;-0.53;99.77
72114;SHT31;59989;46.220;19.888;2023-12-20T12:12:41;-0.48;99.82
72114;SHT31;59989;46.220;19.888;2023-12-20T12:15:44;-0.56;99.67
72114;SHT31;59989;46.220;19.888;2023-12-20T12:18:55;-0.46;99.65
72114;SHT31;59989;46.220;19.888;2023-12-20T12:22:07;-0.43;99.65
72114;SHT31;59989;46.220;19.888;2023-12-20T12:25:17;-0.41;99.67
72114;SHT31;59989;46.220;19.888;2023-12-20T12:28:20;-0.41;99.62
72114;SHT31;59989;46.220;19.888;2023-12-20T12:31:23;-0.45;99.72
72114;SHT31;59989;46.220;19.888;2023-12-20T12:34:30;-0.29;99.71
72114;SHT31;59989;46.220;19.888;2023-12-20T12:37:34;-0.38;99.58
72114;SHT31;59989;46.220;19.888;2023-12-20T12:40:37;-0.34;99.61
72114;SHT31;59989;46.220;19.888;2023-12-20T12:43:40;-0.24;99.65
72114;SHT31;59989;46.220;19.888;2023-12-20T12:46:43;-0.11;99.50
72114;SHT31;59989;46.220;19.888;2023-12-20T12:49:47;-0.01;99.46
72114;SHT31;59989;46.220;19.888;2023-12-20T12:52:52;0.02;99.32
72114;SHT31;59989;46.220;19.888;2023-12-20T12:55:55;0.05;99.30
72114;SHT31;59989;46.220;19.888;2023-12-20T12:58:58;0.07;99.23
72114;SHT31;59989;46.220;19.888;2023-12-20T13:02:01;0.21;99.07
72114;SHT31;59989;46.220;19.888;2023-12-20T13:05:04;0.30;98.86
72114;SHT31;59989;46.220;19.888;2023-12-20T13:08:07;0.60;98.19
72114;SHT31;59989;46.220;19.888;2023-12-20T13:11:11;0.76;98.00
72114;SHT31;59989;46.220;19.888;2023-12-20T13:14:14;1.12;96.45
72114;SHT31;59989;46.220;19.888;2023-12-20T13:17:19;0.91;96.86
72114;SHT31;59989;46.220;19.888;2023-12-20T13:20:22;1.48;95.37
72114;SHT31;59989;46.220;19.888;2023-12-20T13:23:24;1.58;95.77
72114;SHT31;59989;46.220;19.888;2023-12-20T13:26:27;1.13;95.77
72114;SHT31;59989;46.220;19.888;2023-12-20T13:29:30;1.32;95.90
72114;SHT31;59989;46.220;19.888;2023-12-20T13:32:32;1.75;94.02
72114;SHT31;59989;46.220;19.888;2023-12-20T13:35:35;1.42;94.90
72114;SHT31;59989;46.220;19.888;2023-12-20T13:38:38;1.09;96.17
72114;SHT31;59989;46.220;19.888;2023-12-20T13:41:41;0.84;97.22
72114;SHT31;59989;46.220;19.888;2023-12-20T13:44:44;0.69;97.65
72114;SHT31;59989;46.220;19.888;2023-12-20T13:47:46;0.68;97.85
72114;SHT31;59989;46.220;19.888;2023-12-20T13:50:49;0.75;98.01
72114;SHT31;59989;46.220;19.888;2023-12-20T13:53:52;0.79;97.97
72114;SHT31;59989;46.220;19.888;2023-12-20T13:56:54;0.74;98.05
72114;SHT31;59989;46.220;19.888;2023-12-20T14:00:14;0.66;98.34
72114;SHT31;59989;46.220;19.888;2023-12-20T14:03:17;0.65;98.39
72114;SHT31;59989;46.220;19.888;2023-12-20T14:06:20;0.68;98.46
72114;SHT31;59989;46.220;19.888;2023-12-20T14:09:23;0.65;98.56
72114;SHT31;59989;46.220;19.888;2023-12-20T14:12:25;0.64;98.64
72114;SHT31;59989;46.220;19.888;2023-12-20T14:15:28;0.55;98.83
72114;SHT31;59989;46.220;19.888;2023-12-20T14:18:30;0.54;98.88
72114;SHT31;59989;46.220;19.888;2023-12-20T14:21:33;0.55;99.09
72114;SHT31;59989;46.220;19.888;2023-12-20T14:24:36;0.54;99.15
72114;SHT31;59989;46.220;19.888;2023-12-20T14:27:39;0.60;99.22
72114;SHT31;59989;46.220;19.888;2023-12-20T14:30:42;0.57;99.16
72114;SHT31;59989;46.220;19.888;2023-12-20T14:33:45;0.55;99.30
72114;SHT31;59989;46.220;19.888;2023-12-20T14:36:48;0.51;99.39
72114;SHT31;59989;46.220;19.888;2023-12-20T14:39:51;0.62;99.35
72114;SHT31;59989;46.220;19.888;2023-12-20T14:42:53;0.66;99.28
72114;SHT31;59989;46.220;19.888;2023-12-20T14:45:56;0.61;99.28
72114;SHT31;59989;46.220;19.888;2023-12-20T14:48:58;0.50;99.32
72114;SHT31;59989;46.220;19.888;2023-12-20T14:52:02;0.50;99.35
72114;SHT31;59989;46.220;19.888;2023-12-20T14:55:05;0.44;99.45
72114;SHT31;59989;46.220;19.888;2023-12-20T14:58:10;0.43;99.57
72114;SHT31;59989;46.220;19.888;2023-12-20T15:01:13;0.41;99.55
72114;SHT31;59989;46.220;19.888;2023-12-20T15:04:15;0.37;99.50
72114;SHT31;59989;46.220;19.888;2023-12-20T15:07:19;0.58;99.73
72114;SHT31;59989;46.220;19.888;2023-12-20T15:10:21;0.66;99.45
72114;SHT31;59989;46.220;19.888;2023-12-20T15:13:24;0.92;99.36
72114;SHT31;59989;46.220;19.888;2023-12-20T15:16:27;1.05;99.09
72114;SHT31;59989;46.220;19.888;2023-12-20T15:19:31;1.15;98.79
72114;SHT31;59989;46.220;19.888;2023-12-20T15:22:33;1.22;98.65
72114;SHT31;59989;46.220;19.888;2023-12-20T15:25:37;1.40;98.44
72114;SHT31;59989;46.220;19.888;2023-12-20T15:28:40;1.43;98.19
72114;SHT31;59989;46.220;19.888;2023-12-20T15:31:43;1.61;98.15
72114;SHT31;59989;46.220;19.888;2023-12-20T15:34:47;1.77;97.74
72114;SHT31;59989;46.220;19.888;2023-12-20T15:37:50;1.82;97.56
72114;SHT31;59989;46.220;19.888;2023-12-20T15:40:54;1.94;97.43
72114;SHT31;59989;46.220;19.888;2023-12-20T15:43:56;2.02;97.28
72114;SHT31;59989;46.220;19.888;2023-12-20T15:46:58;2.01;97.32
72114;SHT31;59989;46.220;19.888;2023-12-20T15:50:01;2.11;97.37
72114;SHT31;59989;46.220;19.888;2023-12-20T15:53:04;2.09;97.42
72114;SHT31;59989;46.220;19.888;2023-12-20T15:56:07;2.18;97.63
72114;SHT31;59989;46.220;19.888;2023-12-20T15:59:10;2.34;97.28
72114;SHT31;59989;46.220;19.888;2023-12-20T16:02:13;2.44;97.02
72114;SHT31;59989;46.220;19.888;2023-12-20T16:05:16;2.67;96.76
72114;SHT31;59989;46.220;19.888;2023-12-20T16:08:18;2.83;96.35
72114;SHT31;59989;46.220;19.888;2023-12-20T16:11:21;2.88;96.09
72114;SHT31;59989;46.220;19.888;2023-12-20T16:14:24;2.91;95.97
72114;SHT31;59989;46.220;19.888;2023-12-20T16:17:29;2.88;96.09
72114;SHT31;59989;46.220;19.888;2023-12-20T16:20:32;3.02;96.08
72114;SHT31;59989;46.220;19.888;2023-12-20T16:23:34;3.08;95.88
72114;SHT31;59989;46.220;19.888;2023-12-20T16:26:37;3.04;95.83
72114;SHT31;59989;46.220;19.888;2023-12-20T16:29:39;2.91;96.08
72114;SHT31;59989;46.220;19.888;2023-12-20T16:32:42;2.99;96.04
72114;SHT31;59989;46.220;19.888;2023-12-20T16:35:45;2.97;95.87
72114;SHT31;59989;46.220;19.888;2023-12-20T16:38:47;2.97;95.97
72114;SHT31;59989;46.220;19.888;2023-12-20T16:41:50;2.74;96.24
72114;SHT31;59989;46.220;19.888;2023-12-20T16:44:52;2.71;96.65
72114;SHT31;59989;46.220;19.888;2023-12-20T16:47:55;2.71;96.73
72114;SHT31;59989;46.220;19.888;2023-12-20T16:50:57;2.81;96.78
72114;SHT31;59989;46.220;19.888;2023-12-20T16:54:00;2.78;96.66
72114;SHT31;59989;46.220;19.888;2023-12-20T16:57:03;2.68;96.65
72114;SHT31;59989;46.220;19.888;2023-12-20T17:00:06;2.68;96.93
72114;SHT31;59989;46.220;19.888;2023-12-20T17:03:09;2.78;96.96
72114;SHT31;59989;46.220;19.888;2023-12-20T17:06:12;2.70;96.96
72114;SHT31;59989;46.220;19.888;2023-12-20T17:09:15;2.88;96.79
72114;SHT31;59989;46.220;19.888;2023-12-20T17:12:20;2.74;96.57
72114;SHT31;59989;46.220;19.888;2023-12-20T17:15:22;2.68;96.97
72114;SHT31;59989;46.220;19.888;2023-12-20T17:18:25;2.81;96.87
72114;SHT31;59989;46.220;19.888;2023-12-20T17:21:28;2.98;96.09
72114;SHT31;59989;46.220;19.888;2023-12-20T17:24:30;3.04;95.98
72114;SHT31;59989;46.220;19.888;2023-12-20T17:27:33;2.99;95.79
72114;SHT31;59989;46.220;19.888;2023-12-20T17:30:36;2.97;96.07
72114;SHT31;59989;46.220;19.888;2023-12-20T17:33:39;3.04;95.85
72114;SHT31;59989;46.220;19.888;2023-12-20T17:36:41;3.01;95.91
72114;SHT31;59989;46.220;19.888;2023-12-20T17:39:44;2.99;95.87
72114;SHT31;59989;46.220;19.888;2023-12-20T17:42:46;3.08;95.65
72114;SHT31;59989;46.220;19.888;2023-12-20T17:45:49;3.15;95.24
72114;SHT31;59989;46.220;19.888;2023-12-20T17:48:52;3.01;95.40
72114;SHT31;59989;46.220;19.888;2023-12-20T17:51:55;3.04;95.73
72114;SHT31;59989;46.220;19.888;2023-12-20T17:54:58;3.11;95.50
72114;SHT31;59989;46.220;19.888;2023-12-20T17:58:00;3.04;95.40
72114;SHT31;59989;46.220;19.888;2023-12-20T18:01:03;2.94;95.58
72114;SHT31;59989;46.220;19.888;2023-12-20T18:04:06;2.94;95.88
72114;SHT31;59989;46.220;19.888;2023-12-20T18:07:10;2.92;95.97
72114;SHT31;59989;46.220;19.888;2023-12-20T18:10:13;2.87;95.95
72114;SHT31;59989;46.220;19.888;2023-12-20T18:13:16;2.92;96.15
72114;SHT31;59989;46.220;19.888;2023-12-20T18:16:18;2.91;95.83
72114;SHT31;59989;46.220;19.888;2023-12-20T18:19:21;3.04;95.58
72114;SHT31;59989;46.220;19.888;2023-12-20T18:22:23;3.11;95.56
72114;SHT31;59989;46.220;19.888;2023-12-20T18:25:26;2.98;95.71
72114;SHT31;59989;46.220;19.888;2023-12-20T18:28:30;3.12;95.59
72114;SHT31;59989;46.220;19.888;2023-12-20T18:31:33;3.12;95.64
72114;SHT31;59989;46.220;19.888;2023-12-20T18:34:35;3.12;95.40
72114;SHT31;59989;46.220;19.888;2023-12-20T18:37:38;3.15;95.21
72114;SHT31;59989;46.220;19.888;2023-12-20T18:40:41;3.13;95.39
72114;SHT31;59989;46.220;19.888;2023-12-20T18:43:50;3.35;94.88
72114;SHT31;59989;46.220;19.888;2023-12-20T18:46:53;3.50;94.68
72114;SHT31;59989;46.220;19.888;2023-12-20T18:49:55;3.53;94.35
72114;SHT31;59989;46.220;19.888;2023-12-20T18:52:59;3.56;94.11
72114;SHT31;59989;46.220;19.888;2023-12-20T18:56:01;3.40;94.46
72114;SHT31;59989;46.220;19.888;2023-12-20T18:59:04;3.38;94.67
72114;SHT31;59989;46.220;19.888;2023-12-20T19:02:06;3.46;94.72
72114;SHT31;59989;46.220;19.888;2023-12-20T19:05:11;3.44;94.62